createdAt,value
2023-11-16T00:02:13.542Z,100.00
2023-11-16T00:04:44.554Z,100.00
2023-11-16T00:07:14.269Z,100.00
2023-11-16T00:09:44.293Z,100.00
2023-11-16T00:12:15.748Z,100.00
2023-11-16T00:14:46.070Z,100.00
2023-11-16T00:17:15.989Z,100.00
2023-11-16T00:19:45.186Z,100.00
2023-11-16T00:22:15.808Z,100.00
2023-11-16T00:24:46.509Z,100.00
2023-11-16T00:27:17.324Z,100.00
2023-11-16T00:29:48.111Z,100.00
2023-11-16T00:32:19.498Z,100.00
2023-11-16T00:34:50.305Z,100.00
2023-11-16T00:37:21.110Z,100.00
2023-11-16T00:39:53.716Z,100.00
2023-11-16T00:42:24.502Z,100.00
2023-11-16T00:44:54.892Z,100.00
2023-11-16T00:47:24.111Z,100.00
2023-11-16T00:49:54.951Z,100.00
2023-11-16T00:52:26.034Z,100.00
2023-11-16T00:54:57.903Z,100.00
2023-11-16T00:57:30.078Z,100.00
2023-11-16T01:00:00.372Z,100.00
2023-11-16T01:02:28.623Z,100.00
2023-11-16T01:04:57.206Z,100.00
2023-11-16T01:07:25.300Z,100.00
2023-11-16T01:09:53.837Z,100.00
2023-11-16T01:12:22.213Z,100.00
2023-11-16T01:14:54.166Z,100.00
2023-11-16T01:17:23.555Z,100.00
2023-11-16T01:19:53.635Z,100.00
2023-11-16T01:22:23.991Z,100.00
2023-11-16T01:24:54.204Z,100.00
2023-11-16T01:27:28.238Z,100.00
2023-11-16T01:29:58.901Z,100.00
2023-11-16T01:32:28.778Z,100.00
2023-11-16T01:34:58.632Z,100.00
2023-11-16T01:37:28.412Z,100.00
2023-11-16T01:39:58.623Z,100.00
2023-11-16T01:42:28.583Z,100.00
2023-11-16T01:44:58.357Z,100.00
2023-11-16T01:47:28.638Z,100.00
2023-11-16T01:50:01.830Z,100.00
2023-11-16T01:52:33.127Z,100.00
2023-11-16T01:55:03.253Z,100.00
2023-11-16T01:57:33.177Z,100.00
2023-11-16T02:00:08.022Z,100.00
2023-11-16T02:02:44.061Z,100.00
2023-11-16T02:05:15.371Z,100.00
2023-11-16T02:07:46.128Z,100.00
2023-11-16T02:10:16.919Z,100.00
2023-11-16T02:12:54.193Z,100.00
2023-11-16T02:15:26.843Z,100.00
2023-11-16T02:17:58.233Z,100.00
2023-11-16T02:20:30.400Z,100.00
2023-11-16T02:23:04.654Z,100.00
2023-11-16T02:25:52.586Z,100.00
2023-11-16T02:28:22.263Z,100.00
2023-11-16T02:30:53.694Z,100.00
2023-11-16T02:33:23.098Z,100.00
2023-11-16T02:35:53.871Z,100.00
2023-11-16T02:38:22.920Z,100.00
2023-11-16T02:40:53.846Z,100.00
2023-11-16T02:43:25.462Z,100.00
2023-11-16T02:45:56.253Z,100.00
2023-11-16T02:48:27.889Z,100.00
2023-11-16T02:50:58.482Z,100.00
2023-11-16T02:53:26.857Z,100.00
2023-11-16T02:55:55.281Z,100.00
2023-11-16T02:58:23.687Z,100.00
2023-11-16T03:00:52.310Z,100.00
2023-11-16T03:03:20.573Z,100.00
2023-11-16T03:05:48.930Z,100.00
2023-11-16T03:08:19.162Z,100.00
2023-11-16T03:10:50.099Z,100.00
2023-11-16T03:13:19.198Z,100.00
2023-11-16T03:15:49.677Z,100.00
2023-11-16T03:18:19.891Z,100.00
2023-11-16T03:20:50.419Z,100.00
2023-11-16T03:23:20.451Z,100.00
2023-11-16T03:25:51.306Z,100.00
2023-11-16T03:28:22.250Z,100.00
2023-11-16T03:30:50.994Z,100.00
2023-11-16T03:33:19.113Z,100.00
2023-11-16T03:35:50.583Z,100.00
2023-11-16T03:38:19.660Z,100.00
2023-11-16T03:40:50.772Z,100.00
2023-11-16T03:43:19.833Z,100.00
2023-11-16T03:45:50.108Z,100.00
2023-11-16T03:48:20.459Z,100.00
2023-11-16T03:50:51.279Z,100.00
2023-11-16T03:53:22.056Z,100.00
2023-11-16T03:55:52.724Z,100.00
2023-11-16T03:58:22.668Z,100.00
2023-11-16T04:00:53.384Z,100.00
2023-11-16T04:03:23.049Z,100.00
2023-11-16T04:05:53.293Z,100.00
2023-11-16T04:08:24.114Z,100.00
2023-11-16T04:10:53.647Z,100.00
2023-11-16T04:13:23.863Z,100.00
2023-11-16T04:15:55.221Z,100.00
2023-11-16T04:18:24.511Z,100.00
2023-11-16T04:20:55.021Z,100.00
2023-11-16T04:23:26.366Z,100.00
2023-11-16T04:25:56.037Z,100.00
2023-11-16T04:28:27.369Z,100.00
2023-11-16T04:30:58.295Z,100.00
2023-11-16T04:33:28.371Z,100.00
2023-11-16T04:35:57.354Z,100.00
2023-11-16T04:38:29.005Z,100.00
2023-11-16T04:40:59.791Z,100.00
2023-11-16T04:43:28.041Z,100.00
2023-11-16T04:45:56.468Z,100.00
2023-11-16T04:48:24.984Z,100.00
2023-11-16T04:50:53.356Z,100.00
2023-11-16T04:53:23.483Z,100.00
2023-11-16T04:55:53.849Z,100.00
2023-11-16T04:58:25.166Z,100.00
2023-11-16T05:00:54.132Z,100.00
2023-11-16T05:03:24.311Z,100.00
2023-11-16T05:05:55.110Z,100.00
2023-11-16T05:08:24.900Z,100.00
2023-11-16T05:10:55.774Z,100.00
2023-11-16T05:13:25.248Z,100.00
2023-11-16T05:15:55.261Z,100.00
2023-11-16T05:18:25.619Z,100.00
2023-11-16T05:20:55.844Z,100.00
2023-11-16T05:23:25.984Z,100.00
2023-11-16T05:25:58.149Z,100.00
2023-11-16T05:28:27.573Z,100.00
2023-11-16T05:30:57.780Z,100.00
2023-11-16T05:33:29.047Z,100.00
2023-11-16T05:35:58.391Z,100.00
2023-11-16T05:38:29.259Z,100.00
2023-11-16T05:40:59.900Z,100.00
2023-11-16T05:43:29.996Z,100.00
2023-11-16T05:46:00.686Z,100.00
2023-11-16T05:48:30.753Z,100.00
2023-11-16T05:51:00.937Z,100.00
2023-11-16T05:53:29.361Z,100.00
2023-11-16T05:55:58.619Z,100.00
2023-11-16T05:58:29.163Z,100.00
2023-11-16T06:00:57.658Z,100.00
2023-11-16T06:03:29.744Z,100.00
2023-11-16T06:06:00.524Z,100.00
2023-11-16T06:08:30.841Z,100.00
2023-11-16T06:10:59.705Z,100.00
2023-11-16T06:13:30.273Z,100.00
2023-11-16T06:16:01.794Z,100.00
2023-11-16T06:18:30.713Z,100.00
2023-11-16T06:21:00.794Z,100.00
2023-11-16T06:23:31.142Z,100.00
2023-11-16T06:26:01.777Z,100.00
2023-11-16T06:28:30.134Z,100.00
2023-11-16T06:30:58.505Z,100.00
2023-11-16T06:33:26.935Z,100.00
2023-11-16T06:35:55.845Z,100.00
2023-11-16T06:38:23.895Z,100.00
2023-11-16T06:40:52.185Z,100.00
2023-11-16T06:43:24.416Z,100.00
2023-11-16T06:45:59.339Z,100.00
2023-11-16T06:48:32.229Z,100.00
2023-11-16T06:51:02.147Z,100.00
2023-11-16T06:53:30.007Z,100.00
2023-11-16T06:56:01.824Z,100.00
2023-11-16T06:58:33.966Z,100.00
2023-11-16T07:01:05.443Z,100.00
2023-11-16T07:03:36.486Z,100.00
2023-11-16T07:06:07.720Z,100.00
2023-11-16T07:08:39.133Z,100.00
2023-11-16T07:11:09.918Z,100.00
2023-11-16T07:13:40.798Z,100.00
2023-11-16T07:16:11.579Z,100.00
2023-11-16T07:18:42.487Z,100.00
2023-11-16T07:21:13.415Z,100.00
2023-11-16T07:23:44.252Z,100.00
2023-11-16T07:26:15.734Z,100.00
2023-11-16T07:28:48.743Z,100.00
2023-11-16T07:31:22.955Z,100.00
2023-11-16T07:33:55.883Z,100.00
2023-11-16T07:36:28.539Z,100.00
2023-11-16T07:39:00.075Z,100.00
2023-11-16T07:41:32.033Z,100.00
2023-11-16T07:44:03.202Z,100.00
2023-11-16T07:46:34.806Z,100.00
2023-11-16T07:49:05.838Z,100.00
2023-11-16T07:51:40.693Z,100.00
2023-11-16T07:54:12.933Z,100.00
2023-11-16T07:56:51.405Z,100.00
2023-11-16T07:59:32.811Z,100.00
2023-11-16T08:02:03.600Z,100.00
2023-11-16T08:04:36.529Z,100.00
2023-11-16T08:07:08.469Z,100.00
2023-11-16T08:09:39.274Z,100.00
2023-11-16T08:12:11.531Z,100.00
2023-11-16T08:14:42.950Z,100.00
2023-11-16T08:17:17.886Z,100.00
2023-11-16T08:19:49.799Z,100.00
2023-11-16T08:22:21.791Z,100.00
2023-11-16T08:24:52.630Z,100.00
2023-11-16T08:27:23.511Z,100.00
2023-11-16T08:29:51.825Z,100.00
2023-11-16T08:32:20.323Z,100.00
2023-11-16T08:34:48.672Z,100.00
2023-11-16T08:37:17.675Z,100.00
2023-11-16T08:39:46.300Z,100.00
2023-11-16T08:42:18.426Z,100.00
2023-11-16T08:44:50.683Z,100.00
2023-11-16T08:47:21.639Z,100.00
2023-11-16T08:49:52.422Z,100.00
2023-11-16T08:52:23.255Z,100.00
2023-11-16T08:54:54.106Z,100.00
2023-11-16T08:57:27.226Z,100.00
2023-11-16T09:00:20.811Z,100.00
2023-11-16T09:02:55.573Z,100.00
2023-11-16T09:05:26.516Z,100.00
2023-11-16T09:07:54.922Z,100.00
2023-11-16T09:10:24.498Z,100.00
2023-11-16T09:12:56.491Z,100.00
2023-11-16T09:15:28.102Z,100.00
2023-11-16T09:18:04.566Z,100.00
2023-11-16T09:20:36.827Z,100.00
2023-11-16T09:23:10.595Z,100.00
2023-11-16T09:25:44.300Z,100.00
2023-11-16T09:28:15.325Z,100.00
2023-11-16T09:30:46.160Z,100.00
2023-11-16T09:33:17.043Z,100.00
2023-11-16T09:35:47.992Z,100.00
2023-11-16T09:38:19.805Z,100.00
2023-11-16T09:40:50.676Z,100.00
2023-11-16T09:43:23.321Z,100.00
2023-11-16T09:45:55.700Z,100.00
2023-11-16T09:48:24.393Z,100.00
2023-11-16T09:50:55.205Z,100.00
2023-11-16T09:53:28.788Z,100.00
2023-11-16T09:56:02.144Z,100.00
2023-11-16T09:58:37.935Z,100.00
2023-11-16T10:01:12.115Z,100.00
2023-11-16T10:03:43.401Z,100.00
2023-11-16T10:06:20.706Z,100.00
2023-11-16T10:08:51.014Z,100.00
2023-11-16T10:11:25.413Z,100.00
2023-11-16T10:13:56.443Z,100.00
2023-11-16T10:16:27.914Z,100.00
2023-11-16T10:19:06.842Z,100.00
2023-11-16T10:21:41.556Z,100.00
2023-11-16T10:24:13.484Z,100.00
2023-11-16T10:26:56.190Z,100.00
2023-11-16T10:29:26.957Z,100.00
2023-11-16T10:31:58.164Z,100.00
2023-11-16T10:34:29.819Z,100.00
2023-11-16T10:37:01.894Z,100.00
2023-11-16T10:39:33.009Z,100.00
2023-11-16T10:42:04.323Z,100.00
2023-11-16T10:44:38.238Z,100.00
2023-11-16T10:47:12.106Z,100.00
2023-11-16T10:49:44.154Z,100.00
2023-11-16T10:52:17.201Z,100.00
2023-11-16T10:54:55.374Z,100.00
2023-11-16T10:57:27.420Z,100.00
2023-11-16T11:00:01.792Z,100.00
2023-11-16T11:02:30.716Z,100.00
2023-11-16T11:05:11.162Z,100.00
2023-11-16T11:07:55.249Z,100.00
2023-11-16T11:10:30.704Z,100.00
2023-11-16T11:13:05.267Z,100.00
2023-11-16T11:15:38.308Z,100.00
2023-11-16T11:18:10.975Z,100.00
2023-11-16T11:20:42.109Z,100.00
2023-11-16T11:23:19.743Z,100.00
2023-11-16T11:25:50.605Z,100.00
2023-11-16T11:28:23.601Z,100.00
2023-11-16T11:30:58.642Z,100.00
2023-11-16T11:33:44.870Z,100.00
2023-11-16T11:36:21.250Z,100.00
2023-11-16T11:38:54.386Z,100.00
2023-11-16T11:41:25.753Z,100.00
2023-11-16T11:44:05.985Z,100.00
2023-11-16T11:46:37.030Z,100.00
2023-11-16T11:49:09.803Z,100.00
2023-11-16T11:51:44.858Z,100.00
2023-11-16T11:54:16.216Z,100.00
2023-11-16T11:56:48.126Z,100.00
2023-11-16T11:59:20.140Z,100.00
2023-11-16T12:01:52.353Z,100.00
2023-11-16T12:04:23.487Z,100.00
2023-11-16T12:06:54.327Z,100.00
2023-11-16T12:09:26.628Z,100.00
2023-11-16T12:11:57.876Z,100.00
2023-11-16T12:14:35.952Z,100.00
2023-11-16T12:17:11.065Z,100.00
2023-11-16T12:19:42.614Z,100.00
2023-11-16T12:22:13.523Z,100.00
2023-11-16T12:24:41.995Z,100.00
2023-11-16T12:27:16.156Z,100.00
2023-11-16T12:30:02.428Z,100.00
2023-11-16T12:32:32.773Z,100.00
2023-11-16T12:35:03.692Z,100.00
2023-11-16T12:37:38.790Z,100.00
2023-11-16T12:40:18.885Z,100.00
2023-11-16T12:42:51.831Z,99.71
2023-11-16T12:45:22.129Z,99.08
2023-11-16T12:47:52.549Z,100.00
2023-11-16T12:50:21.142Z,100.00
2023-11-16T12:52:49.584Z,99.09
2023-11-16T12:55:17.918Z,100.00
2023-11-16T12:57:49.424Z,98.05
2023-11-16T13:00:20.706Z,100.00
2023-11-16T13:02:51.573Z,99.16
2023-11-16T13:05:22.751Z,97.90
2023-11-16T13:07:53.765Z,99.06
2023-11-16T13:10:26.211Z,96.95
2023-11-16T13:12:57.116Z,97.95
2023-11-16T13:15:28.383Z,100.00
2023-11-16T13:17:59.213Z,99.15
2023-11-16T13:20:30.055Z,97.71
2023-11-16T13:23:00.804Z,96.94
2023-11-16T13:25:31.651Z,97.42
2023-11-16T13:28:02.467Z,98.27
2023-11-16T13:30:34.895Z,98.84
2023-11-16T13:33:06.643Z,95.81
2023-11-16T13:35:37.544Z,96.37
2023-11-16T13:38:08.454Z,94.05
2023-11-16T13:40:39.302Z,94.61
2023-11-16T13:43:10.129Z,92.62
2023-11-16T13:45:38.620Z,92.28
2023-11-16T13:48:06.988Z,93.94
2023-11-16T13:50:35.491Z,93.85
2023-11-16T13:53:03.909Z,95.42
2023-11-16T13:55:33.043Z,93.59
2023-11-16T13:58:04.933Z,93.14
2023-11-16T14:00:35.937Z,94.55
2023-11-16T14:03:11.452Z,97.49
2023-11-16T14:05:42.900Z,97.78
2023-11-16T14:08:14.462Z,95.49
2023-11-16T14:10:45.540Z,95.78
2023-11-16T14:13:13.771Z,97.98
2023-11-16T14:15:46.758Z,99.91
2023-11-16T14:18:23.958Z,100.00
2023-11-16T14:20:55.417Z,100.00
2023-11-16T14:23:29.529Z,100.00
2023-11-16T14:26:07.148Z,100.00
2023-11-16T14:28:38.049Z,100.00
2023-11-16T14:31:09.648Z,100.00
2023-11-16T14:33:40.697Z,100.00
2023-11-16T14:36:11.563Z,100.00
2023-11-16T14:38:42.334Z,100.00
2023-11-16T14:41:13.094Z,100.00
2023-11-16T14:43:43.845Z,100.00
2023-11-16T14:46:14.679Z,100.00
2023-11-16T14:48:45.519Z,100.00
2023-11-16T14:51:18.677Z,100.00
2023-11-16T14:53:54.909Z,100.00
2023-11-16T14:56:30.518Z,100.00
2023-11-16T14:59:01.367Z,100.00
2023-11-16T15:01:32.390Z,100.00
2023-11-16T15:04:04.209Z,100.00
2023-11-16T15:06:35.150Z,100.00
2023-11-16T15:09:06.147Z,100.00
2023-11-16T15:11:36.868Z,100.00
2023-11-16T15:14:10.033Z,100.00
2023-11-16T15:16:45.215Z,100.00
2023-11-16T15:19:16.226Z,100.00
2023-11-16T15:21:47.633Z,100.00
2023-11-16T15:24:18.457Z,100.00
2023-11-16T15:26:51.113Z,100.00
2023-11-16T15:29:22.379Z,100.00
2023-11-16T15:31:53.244Z,100.00
2023-11-16T15:34:21.599Z,100.00
2023-11-16T15:36:51.649Z,100.00
2023-11-16T15:39:22.827Z,100.00
2023-11-16T15:41:53.387Z,100.00
2023-11-16T15:44:23.260Z,100.00
2023-11-16T15:46:53.212Z,100.00
2023-11-16T15:49:23.266Z,100.00
2023-11-16T15:51:53.082Z,100.00
2023-11-16T15:54:23.263Z,100.00
2023-11-16T15:56:54.399Z,100.00
2023-11-16T15:59:24.300Z,100.00
2023-11-16T16:01:54.299Z,100.00
2023-11-16T16:04:24.307Z,100.00
2023-11-16T16:06:54.192Z,100.00
2023-11-16T16:09:24.168Z,100.00
2023-11-16T16:11:53.948Z,100.00
2023-11-16T16:14:22.509Z,100.00
2023-11-16T16:16:54.519Z,100.00
2023-11-16T16:19:32.437Z,100.00
2023-11-16T16:22:01.917Z,100.00
2023-11-16T16:24:32.021Z,100.00
2023-11-16T16:27:08.799Z,100.00
2023-11-16T16:29:39.239Z,100.00
2023-11-16T16:32:12.498Z,100.00
2023-11-16T16:34:43.343Z,100.00
2023-11-16T16:37:14.245Z,100.00
2023-11-16T16:39:45.039Z,100.00
2023-11-16T16:42:15.816Z,100.00
2023-11-16T16:44:46.639Z,100.00
2023-11-16T16:47:19.046Z,100.00
2023-11-16T16:49:53.281Z,100.00
2023-11-16T16:52:24.113Z,100.00
2023-11-16T16:54:55.096Z,100.00
2023-11-16T16:57:29.506Z,100.00
2023-11-16T17:00:00.999Z,100.00
2023-11-16T17:02:29.023Z,100.00
2023-11-16T17:04:57.856Z,100.00
2023-11-16T17:07:25.831Z,100.00
2023-11-16T17:09:54.232Z,100.00
2023-11-16T17:12:22.628Z,100.00
2023-11-16T17:14:53.039Z,100.00
2023-11-16T17:17:25.112Z,100.00
2023-11-16T17:19:55.984Z,100.00
2023-11-16T17:22:27.265Z,100.00
2023-11-16T17:24:58.059Z,100.00
2023-11-16T17:27:29.029Z,100.00
2023-11-16T17:29:59.859Z,100.00
2023-11-16T17:32:30.657Z,100.00
2023-11-16T17:35:01.715Z,100.00
2023-11-16T17:37:33.879Z,100.00
2023-11-16T17:40:09.703Z,100.00
2023-11-16T17:42:41.548Z,100.00
2023-11-16T17:45:12.377Z,100.00
2023-11-16T17:47:43.121Z,100.00
2023-11-16T17:50:13.939Z,100.00
2023-11-16T17:52:44.823Z,100.00
2023-11-16T17:55:20.328Z,100.00
2023-11-16T17:57:52.996Z,100.00
2023-11-16T18:00:25.910Z,100.00
2023-11-16T18:02:56.740Z,100.00
2023-11-16T18:05:27.749Z,100.00
2023-11-16T18:07:58.646Z,100.00
2023-11-16T18:10:29.515Z,100.00
2023-11-16T18:13:01.188Z,100.00
2023-11-16T18:15:31.986Z,100.00
2023-11-16T18:18:00.637Z,100.00
2023-11-16T18:20:29.094Z,100.00
2023-11-16T18:22:58.390Z,100.00
2023-11-16T18:25:30.191Z,100.00
2023-11-16T18:28:00.694Z,100.00
2023-11-16T18:30:31.375Z,100.00
2023-11-16T18:33:00.566Z,100.00
2023-11-16T18:35:30.438Z,100.00
2023-11-16T18:38:01.225Z,100.00
2023-11-16T18:40:32.507Z,100.00
2023-11-16T18:43:03.384Z,100.00
2023-11-16T18:45:34.285Z,100.00
2023-11-16T18:48:10.765Z,100.00
2023-11-16T18:50:42.687Z,100.00
2023-11-16T18:53:14.856Z,100.00
2023-11-16T18:55:45.781Z,100.00
2023-11-16T18:58:16.717Z,100.00
2023-11-16T19:00:47.688Z,100.00
2023-11-16T19:03:18.618Z,100.00
2023-11-16T19:05:49.582Z,100.00
2023-11-16T19:08:22.318Z,100.00
2023-11-16T19:10:54.620Z,100.00
2023-11-16T19:13:25.472Z,100.00
2023-11-16T19:15:56.344Z,100.00
2023-11-16T19:18:24.765Z,100.00
2023-11-16T19:20:54.597Z,100.00
2023-11-16T19:23:24.581Z,100.00
2023-11-16T19:25:53.176Z,100.00
2023-11-16T19:28:24.112Z,100.00
2023-11-16T19:30:56.148Z,100.00
2023-11-16T19:33:27.235Z,100.00
2023-11-16T19:35:58.402Z,100.00
2023-11-16T19:38:29.236Z,100.00
2023-11-16T19:41:00.262Z,100.00
2023-11-16T19:43:31.079Z,100.00
2023-11-16T19:46:04.975Z,100.00
2023-11-16T19:48:36.176Z,100.00
2023-11-16T19:51:07.451Z,100.00
2023-11-16T19:53:39.896Z,100.00
2023-11-16T19:56:10.896Z,100.00
2023-11-16T19:58:41.726Z,100.00
2023-11-16T20:01:12.730Z,100.00
2023-11-16T20:03:47.110Z,100.00
2023-11-16T20:06:19.336Z,100.00
2023-11-16T20:08:50.597Z,100.00
2023-11-16T20:11:21.416Z,100.00
2023-11-16T20:13:52.313Z,100.00
2023-11-16T20:16:23.156Z,100.00
2023-11-16T20:18:53.978Z,100.00
2023-11-16T20:21:26.418Z,100.00
2023-11-16T20:23:56.154Z,100.00
2023-11-16T20:26:24.856Z,100.00
2023-11-16T20:28:53.959Z,100.00
2023-11-16T20:31:24.751Z,100.00
2023-11-16T20:33:55.644Z,100.00
2023-11-16T20:36:30.684Z,100.00
2023-11-16T20:39:01.749Z,100.00
2023-11-16T20:41:38.991Z,100.00
2023-11-16T20:44:15.110Z,100.00
2023-11-16T20:46:47.668Z,100.00
2023-11-16T20:49:20.089Z,100.00
2023-11-16T20:51:51.027Z,100.00
2023-11-16T20:54:21.903Z,100.00
2023-11-16T20:56:53.244Z,100.00
2023-11-16T20:59:24.477Z,100.00
2023-11-16T21:01:55.424Z,100.00
2023-11-16T21:04:27.313Z,100.00
2023-11-16T21:06:58.299Z,100.00
2023-11-16T21:09:29.518Z,100.00
2023-11-16T21:12:00.291Z,100.00
2023-11-16T21:14:34.113Z,100.00
2023-11-16T21:17:03.251Z,100.00
2023-11-16T21:19:36.594Z,100.00
2023-11-16T21:22:08.379Z,100.00
2023-11-16T21:24:42.243Z,100.00
2023-11-16T21:27:13.318Z,100.00
2023-11-16T21:29:44.264Z,100.00
2023-11-16T21:32:15.165Z,100.00
2023-11-16T21:34:46.254Z,100.00
2023-11-16T21:37:17.536Z,100.00
2023-11-16T21:39:48.924Z,100.00
2023-11-16T21:42:19.814Z,100.00
2023-11-16T21:44:49.290Z,100.00
2023-11-16T21:47:19.269Z,100.00
2023-11-16T21:49:49.198Z,100.00
2023-11-16T21:52:19.308Z,100.00
2023-11-16T21:54:49.117Z,100.00
2023-11-16T21:57:18.784Z,100.00
2023-11-16T21:59:48.697Z,100.00
2023-11-16T22:02:18.826Z,100.00
2023-11-16T22:04:49.134Z,100.00
2023-11-16T22:07:19.152Z,100.00
2023-11-16T22:09:49.296Z,100.00
2023-11-16T22:12:20.037Z,100.00
2023-11-16T22:14:51.007Z,100.00
2023-11-16T22:17:20.446Z,100.00
2023-11-16T22:19:50.323Z,100.00
2023-11-16T22:22:21.426Z,100.00
2023-11-16T22:24:52.227Z,100.00
2023-11-16T22:27:22.196Z,100.00
2023-11-16T22:29:52.409Z,100.00
2023-11-16T22:32:23.177Z,100.00
2023-11-16T22:34:52.399Z,100.00
2023-11-16T22:37:22.240Z,100.00
2023-11-16T22:39:52.150Z,100.00
2023-11-16T22:42:20.622Z,100.00
2023-11-16T22:44:48.979Z,100.00
2023-11-16T22:47:17.531Z,100.00
2023-11-16T22:49:48.989Z,100.00
2023-11-16T22:52:17.821Z,100.00
2023-11-16T22:54:48.978Z,100.00
2023-11-16T22:57:17.404Z,100.00
2023-11-16T22:59:45.453Z,100.00
2023-11-16T23:02:13.882Z,100.00
2023-11-16T23:04:43.579Z,100.00
2023-11-16T23:07:15.122Z,100.00
2023-11-16T23:09:46.531Z,100.00
2023-11-16T23:12:15.594Z,100.00
2023-11-16T23:14:45.588Z,100.00
2023-11-16T23:17:17.352Z,100.00
2023-11-16T23:19:46.414Z,100.00
2023-11-16T23:22:15.056Z,100.00
2023-11-16T23:24:45.729Z,100.00
2023-11-16T23:27:14.968Z,100.00
2023-11-16T23:29:45.254Z,100.00
2023-11-16T23:32:14.524Z,100.00
2023-11-16T23:34:43.160Z,100.00
2023-11-16T23:37:12.026Z,100.00
2023-11-16T23:39:43.662Z,100.00
2023-11-16T23:42:15.766Z,100.00
2023-11-16T23:44:44.033Z,100.00
2023-11-16T23:47:15.383Z,100.00
2023-11-16T23:49:44.352Z,100.00
2023-11-16T23:52:14.354Z,100.00
2023-11-16T23:54:47.097Z,100.00
2023-11-16T23:57:17.711Z,100.00
2023-11-16T23:59:48.357Z,100.00
